createdAt,value
2023-04-15T00:05:12.955Z,28.3
2023-04-15T00:11:04.077Z,32.6
2023-04-15T00:16:40.291Z,31.9
2023-04-15T00:22:32.561Z,30.1
2023-04-15T00:28:23.327Z,29.1
2023-04-15T00:34:15.622Z,28.3
2023-04-15T00:40:07.322Z,29.6
2023-04-15T00:45:43.134Z,33.4
2023-04-15T00:51:35.853Z,31.2
2023-04-15T00:57:27.361Z,29.8
2023-04-15T01:03:19.406Z,28.8
2023-04-15T01:08:56.698Z,28.1
2023-04-15T01:14:47.964Z,30.4
2023-04-15T01:20:40.220Z,33.7
2023-04-15T01:26:31.933Z,30.8
2023-04-15T01:32:23.925Z,29.5
2023-04-15T01:38:14.874Z,28.7
2023-04-15T01:44:07.001Z,27.9
2023-04-15T01:49:58.833Z,31.3
2023-04-15T01:55:49.724Z,32.9
2023-04-15T02:01:26.476Z,30.4
2023-04-15T02:07:03.603Z,29.4
2023-04-15T02:12:54.800Z,28.6
2023-04-15T02:18:46.536Z,27.8
2023-04-15T02:24:08.778Z,31.3
2023-04-15T02:30:01.303Z,32.9
2023-04-15T02:35:53.363Z,30.5
2023-04-15T02:41:44.833Z,27.5
2023-04-15T02:47:36.652Z,25.6
2023-04-15T02:53:28.589Z,25.1
2023-04-15T02:59:20.334Z,24.7
2023-04-15T03:05:13.058Z,25.9
2023-04-15T03:11:04.658Z,32
2023-04-15T03:16:55.882Z,32.4
2023-04-15T03:22:47.025Z,30.1
2023-04-15T03:28:39.244Z,26.3
2023-04-15T03:34:15.137Z,25.4
2023-04-15T03:39:51.952Z,24.4
2023-04-15T03:45:43.764Z,24.1
2023-04-15T03:51:51.000Z,23.6
2023-04-15T03:57:41.794Z,24.4
2023-04-15T04:03:34.425Z,31.5
2023-04-15T04:09:26.779Z,32.9
2023-04-15T04:15:17.597Z,30.4
2023-04-15T04:20:54.229Z,26.6
2023-04-15T04:26:30.250Z,25.5
2023-04-15T04:32:21.930Z,24.6
2023-04-15T04:38:14.093Z,24.2
2023-04-15T04:44:05.876Z,23.6
2023-04-15T04:49:57.327Z,23.3
2023-04-15T04:55:49.051Z,31.2
2023-04-15T05:01:41.012Z,33.1
2023-04-15T05:07:17.974Z,30.6
2023-04-15T05:13:09.977Z,27.2
2023-04-15T05:19:03.976Z,25.6
2023-04-15T05:24:57.181Z,24.6
2023-04-15T05:30:49.990Z,24.2
2023-04-15T05:36:41.552Z,23.6
2023-04-15T05:42:33.382Z,23.4
2023-04-15T05:48:25.803Z,30.9
2023-04-15T05:54:20.100Z,33.8
2023-04-15T06:00:11.383Z,30.9
2023-04-15T06:05:34.016Z,29.6
2023-04-15T06:11:10.026Z,28.9
2023-04-15T06:16:46.745Z,27.1
2023-04-15T06:22:39.116Z,32.5
2023-04-15T06:28:00.423Z,32.4
2023-04-15T06:33:52.409Z,30.3
2023-04-15T06:39:29.556Z,29.4
2023-04-15T06:45:07.056Z,28.6
2023-04-15T06:50:58.687Z,30.6
2023-04-15T06:56:50.430Z,33.3
2023-04-15T07:02:26.017Z,30.8
2023-04-15T07:08:17.145Z,29.6
2023-04-15T07:14:08.459Z,28.8
2023-04-15T07:20:02.511Z,27.9
2023-04-15T07:25:54.024Z,27.1
2023-04-15T07:31:46.978Z,26.4
2023-04-15T07:37:37.512Z,25.8
2023-04-15T07:43:30.544Z,25.1
2023-04-15T07:49:24.882Z,24.6
2023-04-15T07:55:16.341Z,24.2
2023-04-15T08:01:07.750Z,23.8
2023-04-15T08:06:47.996Z,23.5
2023-04-15T08:12:24.096Z,23.2
2023-04-15T08:18:15.605Z,23
2023-04-15T08:24:13.806Z,22.8
2023-04-15T08:30:05.957Z,22.6
2023-04-15T08:35:56.891Z,22.4
2023-04-15T08:41:34.419Z,22.3
2023-04-15T08:47:10.541Z,22.1
2023-04-15T08:52:48.125Z,22.1
2023-04-15T08:58:39.544Z,21.9
2023-04-15T09:04:31.739Z,21.9
2023-04-15T09:10:23.430Z,21.8
2023-04-15T09:16:17.704Z,21.7
2023-04-15T09:22:08.306Z,21.6
2023-04-15T09:28:02.010Z,21.6
2023-04-15T09:33:54.490Z,21.6
2023-04-15T09:39:59.977Z,21.4
2023-04-15T09:45:36.544Z,21.4
2023-04-15T09:51:15.928Z,21.4
2023-04-15T09:57:05.570Z,21.3
2023-04-15T10:02:58.362Z,21.3
2023-04-15T10:08:35.291Z,21.3
2023-04-15T10:14:26.642Z,21.2
2023-04-15T10:30:45.716Z,21.1
2023-04-15T10:36:37.182Z,21.1
2023-04-15T10:42:12.804Z,21.1
2023-04-15T10:47:49.595Z,21.1
2023-04-15T10:53:40.527Z,21.1
2023-04-15T10:59:31.364Z,21
2023-04-15T11:05:09.421Z,20.9
2023-04-15T11:11:00.954Z,20.9
2023-04-15T11:16:52.870Z,20.9
2023-04-15T11:22:44.687Z,20.9
2023-04-15T11:28:50.237Z,20.9
2023-04-15T11:34:26.921Z,20.9
2023-04-15T11:40:18.364Z,20.9
2023-04-15T11:46:22.857Z,20.8
2023-04-15T11:51:28.528Z,20.9
2023-04-15T11:56:48.945Z,20.8
2023-04-15T12:02:31.713Z,20.8
2023-04-15T12:08:11.336Z,20.8
2023-04-15T12:14:02.123Z,20.8
2023-04-15T12:20:20.778Z,20.8
2023-04-15T12:26:11.447Z,20.8
2023-04-15T12:32:02.828Z,20.8
2023-04-15T12:37:41.797Z,20.8
2023-04-15T12:43:03.748Z,20.8
2023-04-15T12:48:54.870Z,20.8
2023-04-15T12:54:46.317Z,20.8
2023-04-15T13:00:08.802Z,20.8
2023-04-15T13:06:02.162Z,20.8
2023-04-15T13:11:59.591Z,20.8
2023-04-15T13:17:50.975Z,20.8
2023-04-15T13:23:42.092Z,20.7
2023-04-15T13:29:35.111Z,20.7
2023-04-15T13:35:26.474Z,20.7
2023-04-15T13:41:19.586Z,20.7
2023-04-15T13:47:11.473Z,20.7
2023-04-15T13:53:02.647Z,20.7
2023-04-15T13:59:25.777Z,20.7
2023-04-15T14:05:03.351Z,20.7
2023-04-15T14:10:58.067Z,20.7
2023-04-15T14:16:50.271Z,20.7
2023-04-15T14:22:45.699Z,20.7
2023-04-15T14:28:50.401Z,20.7
2023-04-15T14:34:42.103Z,20.7
2023-04-15T14:40:33.671Z,20.7
2023-04-15T14:46:25.028Z,20.7
2023-04-15T14:52:16.679Z,20.7
2023-04-15T14:58:08.535Z,20.8
2023-04-15T15:04:18.145Z,20.7
2023-04-15T15:10:10.997Z,20.8
2023-04-15T15:16:35.840Z,20.8
2023-04-15T15:22:27.471Z,20.8
2023-04-15T15:28:19.017Z,20.8
2023-04-15T15:34:11.632Z,20.8
2023-04-15T15:40:03.635Z,20.8
2023-04-15T15:45:41.105Z,20.8
2023-04-15T15:51:33.673Z,20.8
2023-04-15T15:56:54.493Z,20.8
2023-04-15T16:03:24.189Z,20.8
2023-04-15T16:09:20.601Z,20.8
2023-04-15T16:15:11.964Z,20.8
2023-04-15T16:21:21.565Z,20.8
2023-04-15T16:27:13.771Z,20.8
2023-04-15T16:33:24.238Z,20.8
2023-04-15T16:39:14.950Z,20.8
2023-04-15T16:45:08.246Z,20.8
2023-04-15T16:50:59.090Z,20.8
2023-04-15T16:56:52.348Z,20.8
2023-04-15T17:03:16.632Z,20.8
2023-04-15T17:09:09.724Z,20.8
2023-04-15T17:15:00.438Z,20.8
2023-04-15T17:20:53.353Z,20.8
2023-04-15T17:26:13.339Z,20.8
2023-04-15T17:32:05.951Z,20.8
2023-04-15T17:38:58.293Z,20.8
2023-04-15T17:44:49.451Z,20.8
2023-04-15T17:50:41.993Z,20.8
2023-04-15T17:56:34.537Z,20.8
2023-04-15T18:02:26.910Z,20.8
2023-04-15T18:08:20.854Z,20.8
2023-04-15T18:14:23.488Z,20.8
2023-04-15T18:20:22.092Z,20.8
2023-04-15T18:26:14.120Z,20.8
2023-04-15T18:32:06.615Z,20.7
2023-04-15T18:37:45.913Z,20.7
2023-04-15T18:43:22.710Z,20.7
2023-04-15T18:49:15.553Z,20.7
2023-04-15T18:55:07.139Z,20.7
2023-04-15T19:01:55.717Z,20.7
2023-04-15T19:07:48.967Z,20.7
2023-04-15T19:13:40.253Z,20.7
2023-04-15T19:19:32.705Z,20.6
2023-04-15T19:25:25.096Z,20.6
2023-04-15T19:31:18.928Z,20.6
2023-04-15T19:36:55.548Z,20.6
2023-04-15T19:42:32.004Z,20.6
2023-04-15T19:48:08.014Z,20.6
2023-04-15T19:53:44.235Z,20.6
2023-04-15T19:59:35.636Z,20.5
2023-04-15T20:05:28.736Z,20.6
2023-04-15T20:11:08.110Z,20.5
2023-04-15T20:18:05.940Z,20.5
2023-04-15T20:23:56.898Z,20.5
2023-04-15T20:29:47.881Z,20.5
2023-04-15T20:35:39.755Z,20.4
2023-04-15T20:41:31.400Z,20.4
2023-04-15T20:47:35.121Z,26.3
2023-04-15T20:53:27.002Z,31.9
2023-04-15T20:59:20.836Z,32.1
2023-04-15T21:05:13.903Z,30.3
2023-04-15T21:11:05.438Z,29.4
2023-04-15T21:17:17.857Z,28.6
2023-04-15T21:28:47.616Z,26.6
2023-04-15T21:34:38.609Z,31.5
2023-04-15T21:40:14.820Z,32
2023-04-15T21:46:20.827Z,30.3
2023-04-15T21:52:46.209Z,29.3
2023-04-15T21:58:37.513Z,28.4
2023-04-15T22:04:33.594Z,27.6
2023-04-15T22:10:37.217Z,26.4
2023-04-15T22:16:28.184Z,31.7
2023-04-15T22:22:20.307Z,31.4
2023-04-15T22:29:02.199Z,30
2023-04-15T22:34:54.194Z,29.1
2023-04-15T22:40:46.492Z,28.3
2023-04-15T22:46:22.856Z,27.4
2023-04-15T22:52:27.419Z,26.8
2023-04-15T22:58:07.069Z,29.7
2023-04-15T23:04:23.201Z,32.4
2023-04-15T23:10:09.567Z,30.4
2023-04-15T23:16:01.320Z,29.5
2023-04-15T23:21:53.153Z,28.6
2023-04-15T23:27:44.025Z,27.9
2023-04-15T23:33:36.637Z,27.1
2023-04-15T23:39:28.251Z,26.4
2023-04-15T23:45:03.499Z,29.6
2023-04-15T23:50:58.569Z,32.3
2023-04-15T23:56:50.218Z,30.4
